Time;durP1;ratioP1;P1;durP2;ratioP2;P2;SDS_P1;SDS_P2;PMS_P1;PMS_P2;Temp;Humidity;BMP_temperature;BMP_pressure;BME280_temperature;BME280_humidity;BME280_pressure;Samples;Min_cycle;Max_cycle;Signal;HPM_P1;HPM_P2
2023/05/06 00:00:12;;;;;;;;;;;;;;;-142.75;100.00;76885.25;4969891;28;20068;-70
2023/05/06 00:02:37;;;;;;;;;;;;;;;-142.75;100.00;76887.22;4987141;28;20337;-69
2023/05/06 00:05:02;;;;;;;;;;;;;;;-142.75;100.00;76891.16;4986971;28;19936;-69
2023/05/06 00:07:27;;;;;;;;;;;;;;;-142.75;100.00;76893.13;4987037;28;20354;-70
2023/05/06 00:09:56;;;;;;;;;;;;;;;-142.75;100.00;76893.13;4987182;28;19920;-69
2023/05/06 00:12:21;;;;;;;;;;;;;;;-142.75;100.00;76901.00;4987133;28;19917;-70
2023/05/06 00:14:46;;;;;;;;;;;;;;;-142.75;100.00;76891.16;4987057;28;19913;-69
2023/05/06 00:17:11;;;;;;;;;;;;;;;-142.75;100.00;76904.94;4987092;28;19941;-69
2023/05/06 00:19:37;;;;;;;;;;;;;;;-142.75;100.00;76932.50;4986866;28;19913;-70
2023/05/06 00:22:02;;;;;;;;;;;;;;;-142.75;100.00;76926.59;4987038;28;19949;-70
2023/05/06 00:24:27;;;;;;;;;;;;;;;-142.75;100.00;76934.47;4987456;28;19960;-70
2023/05/06 00:26:57;;;;;;;;;;;;;;;-142.75;100.00;76934.47;4987205;28;19918;-71
2023/05/06 00:29:22;;;;;;;;;;;;;;;-142.75;100.00;76946.28;4987353;28;19914;-69
2023/05/06 00:31:47;;;;;;;;;;;;;;;-142.75;100.00;76938.41;4987267;28;19922;-68
2023/05/06 00:34:12;;;;;;;;;;;;;;;-142.75;100.00;76928.56;4987166;28;19913;-69
2023/05/06 00:36:38;;;;;;;;;;;;;;;-142.75;100.00;76928.56;4987037;28;20331;-69
2023/05/06 00:39:03;;;;;;;;;;;;;;;-142.75;100.00;76928.56;4973395;28;20379;-69
2023/05/06 00:41:32;;;;;;;;;;;;;;;-142.75;100.00;76930.53;4989426;28;20412;-69
2023/05/06 00:43:57;;;;;;;;;;;;;;;-142.75;100.00;76934.47;4980833;28;19914;-70
2023/05/06 00:46:22;;;;;;;;;;;;;;;-142.75;100.00;76940.38;4990582;28;19949;-69
2023/05/06 00:48:47;;;;;;;;;;;;;;;-142.75;100.00;76956.13;4989947;28;19925;-71
2023/05/06 00:51:13;;;;;;;;;;;;;;;-142.75;100.00;76932.50;4990274;28;19913;-69
2023/05/06 00:53:38;;;;;;;;;;;;;;;-142.75;100.00;76930.53;4990072;28;19914;-70
2023/05/06 00:56:04;;;;;;;;;;;;;;;-142.75;100.00;76942.34;4990050;28;19940;-69
2023/05/06 00:58:30;;;;;;;;;;;;;;;-142.75;100.00;76928.56;4989830;28;19921;-70
2023/05/06 01:00:55;;;;;;;;;;;;;;;-142.75;100.00;76926.59;4990061;28;19972;-69
2023/05/06 01:03:21;;;;;;;;;;;;;;;-142.75;100.00;76912.81;4989963;28;20590;-70
2023/05/06 01:05:53;;;;;;;;;;;;;;;-142.75;100.00;76901.00;4989783;28;19917;-69
2023/05/06 01:08:48;;;;;;;;;;;;;;;-142.75;100.00;76912.81;4979534;28;19924;-70
2023/05/06 01:11:15;;;;;;;;;;;;;;;-142.75;100.00;76918.72;4929116;28;20224;-69
2023/05/06 01:13:47;;;;;;;;;;;;;;;-142.75;100.00;76936.44;4988243;28;19918;-69
2023/05/06 01:16:14;;;;;;;;;;;;;;;-142.75;100.00;76940.38;4988250;28;20060;-70
2023/05/06 01:18:40;;;;;;;;;;;;;;;-142.75;100.00;76932.50;4989645;28;19914;-69
2023/05/06 01:21:06;;;;;;;;;;;;;;;-142.75;100.00;76962.03;4972301;28;19914;-69
2023/05/06 01:23:50;;;;;;;;;;;;;;;-142.75;100.00;76950.22;4989507;28;20008;-70
2023/05/06 01:26:16;;;;;;;;;;;;;;;-142.75;100.00;76956.13;4989351;28;19914;-69
2023/05/06 01:28:41;;;;;;;;;;;;;;;-142.75;100.00;76944.31;4989474;28;19918;-69
2023/05/06 01:31:10;;;;;;;;;;;;;;;-142.75;100.00;76964.00;4989554;28;19921;-70
2023/05/06 01:33:52;;;;;;;;;;;;;;;-142.75;100.00;76958.09;4973882;28;19932;-70
2023/05/06 01:36:22;;;;;;;;;;;;;;;-142.75;100.00;76940.38;4989703;28;20372;-69
2023/05/06 01:39:06;;;;;;;;;;;;;;;-142.75;100.00;76938.41;4989185;28;20410;-69
2023/05/06 01:41:34;;;;;;;;;;;;;;;-142.75;100.00;76944.31;4989793;28;19957;-69
2023/05/06 01:44:00;;;;;;;;;;;;;;;-142.75;100.00;76950.22;4989062;28;19914;-69
2023/05/06 01:46:25;;;;;;;;;;;;;;;-142.75;100.00;76954.16;4989289;28;19918;-68
2023/05/06 01:48:55;;;;;;;;;;;;;;;-142.75;100.00;76956.13;4988383;28;20621;-69
2023/05/06 01:51:21;;;;;;;;;;;;;;;-142.75;100.00;76954.16;4989327;28;20403;-69
2023/05/06 01:53:46;;;;;;;;;;;;;;;-142.75;100.00;76960.06;4988856;28;19960;-69
2023/05/06 01:56:11;;;;;;;;;;;;;;;-142.75;100.00;76958.09;4988996;28;19925;-69
2023/05/06 01:58:37;;;;;;;;;;;;;;;-142.75;100.00;76960.06;4988800;28;19914;-69
2023/05/06 02:01:02;;;;;;;;;;;;;;;-142.75;100.00;76952.19;4989167;28;19914;-71
2023/05/06 02:03:27;;;;;;;;;;;;;;;-142.75;100.00;76946.28;4987543;28;19929;-69
2023/05/06 02:05:53;;;;;;;;;;;;;;;-142.75;100.00;76956.13;4988633;28;19913;-69
2023/05/06 02:08:18;;;;;;;;;;;;;;;-142.75;100.00;76940.38;4987110;28;20123;-69
2023/05/06 02:10:44;;;;;;;;;;;;;;;-142.75;100.00;76940.38;4988656;28;19914;-69
2023/05/06 02:13:10;;;;;;;;;;;;;;;-142.75;100.00;76936.44;4988714;28;19928;-70
2023/05/06 02:15:35;;;;;;;;;;;;;;;-142.75;100.00;76938.41;4988563;28;19918;-70
2023/05/06 02:18:00;;;;;;;;;;;;;;;-142.75;100.00;76938.41;4988838;28;20000;-69
2023/05/06 02:20:25;;;;;;;;;;;;;;;-142.75;100.00;76944.31;4989447;28;19914;-67
2023/05/06 02:22:51;;;;;;;;;;;;;;;-142.75;100.00;76958.09;4988688;28;19921;-70
2023/05/06 02:25:16;;;;;;;;;;;;;;;-142.75;100.00;76938.41;4988393;28;20109;-69
2023/05/06 02:27:41;;;;;;;;;;;;;;;-142.75;100.00;76940.38;4988275;28;19918;-69
2023/05/06 02:30:07;;;;;;;;;;;;;;;-142.75;100.00;76936.44;4988486;28;19920;-69
2023/05/06 02:32:32;;;;;;;;;;;;;;;-142.75;100.00;76946.28;4988303;28;19914;-68
2023/05/06 02:34:57;;;;;;;;;;;;;;;-142.75;100.00;76958.09;4987992;28;19914;-69
2023/05/06 02:37:22;;;;;;;;;;;;;;;-142.75;100.00;76944.31;4988509;28;19941;-69
2023/05/06 02:39:47;;;;;;;;;;;;;;;-142.75;100.00;76965.97;4988273;28;20505;-70
2023/05/06 02:42:13;;;;;;;;;;;;;;;-142.75;100.00;76954.16;4988199;28;20509;-69
2023/05/06 02:44:38;;;;;;;;;;;;;;;-142.75;100.00;76952.19;4987821;28;19921;-68
2023/05/06 02:47:04;;;;;;;;;;;;;;;-142.75;100.00;76952.19;4988031;28;19929;-69
2023/05/06 02:49:29;;;;;;;;;;;;;;;-142.75;100.00;76971.88;4988000;28;19913;-70
2023/05/06 02:51:54;;;;;;;;;;;;;;;-142.75;100.00;76962.03;4988378;28;19978;-66
2023/05/06 02:54:19;;;;;;;;;;;;;;;-142.75;100.00;76960.06;4986805;28;19932;-68
2023/05/06 02:56:45;;;;;;;;;;;;;;;-142.75;100.00;76952.19;4988073;28;19913;-69
2023/05/06 02:59:10;;;;;;;;;;;;;;;-142.75;100.00;76956.13;4987949;28;19921;-70
2023/05/06 03:01:35;;;;;;;;;;;;;;;-142.75;100.00;76946.28;4987398;28;19957;-69
2023/05/06 03:04:00;;;;;;;;;;;;;;;-142.75;100.00;76944.31;4986316;28;20402;-69
2023/05/06 03:06:26;;;;;;;;;;;;;;;-142.75;100.00;76932.50;4987625;28;19917;-69
2023/05/06 03:08:51;;;;;;;;;;;;;;;-142.75;100.00;76924.63;4987933;28;19917;-69
2023/05/06 03:11:16;;;;;;;;;;;;;;;-142.75;100.00;76912.81;4987951;28;19925;-69
2023/05/06 03:13:41;;;;;;;;;;;;;;;-142.75;100.00;76916.75;4987408;28;19920;-69
2023/05/06 03:16:10;;;;;;;;;;;;;;;-142.75;100.00;76914.78;4972327;28;19920;-70
2023/05/06 03:18:35;;;;;;;;;;;;;;;-142.75;100.00;76928.56;4970153;28;19913;-68
2023/05/06 03:21:00;;;;;;;;;;;;;;;-142.75;100.00;76916.75;4987743;28;19921;-69
2023/05/06 03:23:26;;;;;;;;;;;;;;;-142.75;100.00;76914.78;4987445;28;19913;-69
2023/05/06 03:25:51;;;;;;;;;;;;;;;-142.75;100.00;76910.84;4989778;28;19924;-70
2023/05/06 03:28:16;;;;;;;;;;;;;;;-142.75;100.00;76902.97;4987591;28;19918;-69
2023/05/06 03:30:41;;;;;;;;;;;;;;;-142.75;100.00;76883.28;4987609;28;19913;-70
2023/05/06 03:33:06;;;;;;;;;;;;;;;-142.75;100.00;76881.31;4987503;28;20427;-70
2023/05/06 03:35:32;;;;;;;;;;;;;;;-142.75;100.00;76877.38;4987239;28;20067;-69
2023/05/06 03:37:57;;;;;;;;;;;;;;;-142.75;100.00;76871.47;4987461;28;20276;-69
2023/05/06 03:40:22;;;;;;;;;;;;;;;-142.75;100.00;76865.56;4987739;28;20310;-69
2023/05/06 03:42:47;;;;;;;;;;;;;;;-142.75;100.00;76873.44;4987356;28;19914;-69
2023/05/06 03:45:13;;;;;;;;;;;;;;;-142.75;100.00;76873.44;4987188;28;19913;-69
2023/05/06 03:47:38;;;;;;;;;;;;;;;-142.75;100.00;76873.44;4987450;28;20024;-70
2023/05/06 03:50:03;;;;;;;;;;;;;;;-142.75;100.00;76869.50;4987288;28;20394;-69
2023/05/06 03:52:29;;;;;;;;;;;;;;;-142.75;100.00;76861.63;4987313;28;19914;-69
2023/05/06 03:54:54;;;;;;;;;;;;;;;-142.75;100.00;76859.66;4987282;28;19980;-68
2023/05/06 03:57:19;;;;;;;;;;;;;;;-142.75;100.00;76853.75;4987524;28;20399;-69
2023/05/06 03:59:44;;;;;;;;;;;;;;;-142.75;100.00;76861.63;4987737;28;19941;-70
2023/05/06 04:02:09;;;;;;;;;;;;;;;-142.75;100.00;76869.50;4987680;28;19921;-70
2023/05/06 04:04:35;;;;;;;;;;;;;;;-142.75;100.00;76863.59;4986936;28;19953;-68
2023/05/06 04:07:02;;;;;;;;;;;;;;;-142.75;100.00;76857.69;4987000;28;19972;-69
2023/05/06 04:09:27;;;;;;;;;;;;;;;-142.75;100.00;76861.63;4987293;28;19996;-69
2023/05/06 04:11:52;;;;;;;;;;;;;;;-142.75;100.00;76861.63;4987724;28;19924;-70
2023/05/06 04:14:17;;;;;;;;;;;;;;;-142.75;100.00;76869.50;4990481;28;20509;-69
2023/05/06 04:16:43;;;;;;;;;;;;;;;-142.75;100.00;76867.53;4990815;28;19914;-69
2023/05/06 04:19:08;;;;;;;;;;;;;;;-142.75;100.00;76857.69;4990818;28;20510;-69
2023/05/06 04:21:33;;;;;;;;;;;;;;;-142.75;100.00;76865.56;4989407;28;19914;-69
2023/05/06 04:23:58;;;;;;;;;;;;;;;-142.75;100.00;76857.69;4973115;28;19921;-69
2023/05/06 04:26:23;;;;;;;;;;;;;;;-142.75;100.00;76857.69;4990943;28;20138;-69
2023/05/06 04:28:49;;;;;;;;;;;;;;;-142.75;100.00;76843.91;4991085;28;19918;-70
2023/05/06 04:31:14;;;;;;;;;;;;;;;-142.75;100.00;76847.84;5005665;28;19926;-70
2023/05/06 04:33:40;;;;;;;;;;;;;;;-142.75;100.00;76871.47;4990958;28;19914;-70
2023/05/06 04:36:05;;;;;;;;;;;;;;;-142.75;100.00;76865.56;4990967;28;19925;-69
2023/05/06 04:38:30;;;;;;;;;;;;;;;-142.75;100.00;76849.81;4991346;28;19914;-70
2023/05/06 04:40:56;;;;;;;;;;;;;;;-142.75;100.00;76839.97;4990881;28;19926;-69
2023/05/06 04:43:21;;;;;;;;;;;;;;;-142.75;100.00;76836.03;4995882;28;19924;-69
2023/05/06 04:45:49;;;;;;;;;;;;;;;-142.75;100.00;76818.31;4990346;28;19944;-68
2023/05/06 04:48:18;;;;;;;;;;;;;;;-142.75;100.00;76818.31;4989068;28;19921;-68
2023/05/06 04:50:43;;;;;;;;;;;;;;;-142.75;100.00;76818.31;4990280;28;20169;-69
2023/05/06 04:53:09;;;;;;;;;;;;;;;-142.75;100.00;76818.31;4990138;28;20003;-68
2023/05/06 04:55:34;;;;;;;;;;;;;;;-142.75;100.00;76818.31;4989949;28;20340;-70
2023/05/06 04:57:59;;;;;;;;;;;;;;;-142.75;100.00;76814.38;4990236;28;19917;-69
2023/05/06 05:00:26;;;;;;;;;;;;;;;-142.75;100.00;76814.38;4989998;28;19949;-70
2023/05/06 05:02:51;;;;;;;;;;;;;;;-142.75;100.00;76810.44;4990035;28;19913;-69
2023/05/06 05:05:16;;;;;;;;;;;;;;;-142.75;100.00;76806.50;4989731;28;20438;-70
2023/05/06 05:07:41;;;;;;;;;;;;;;;-142.75;100.00;76808.50;4972434;28;19921;-69
2023/05/06 05:10:08;;;;;;;;;;;;;;;-142.75;100.00;76822.25;4990128;28;19960;-68
2023/05/06 05:12:33;;;;;;;;;;;;;;;-142.75;100.00;76824.22;4989747;28;20539;-69
2023/05/06 05:14:58;;;;;;;;;;;;;;;-142.75;100.00;76810.44;4989677;28;19913;-69
2023/05/06 05:17:23;;;;;;;;;;;;;;;-142.75;100.00;76812.41;4989792;28;19914;-67
2023/05/06 05:19:49;;;;;;;;;;;;;;;-142.75;100.00;76826.19;4989872;28;19918;-70
2023/05/06 05:22:14;;;;;;;;;;;;;;;-142.75;100.00;76828.16;4989626;28;19918;-70
2023/05/06 05:24:40;;;;;;;;;;;;;;;-142.75;100.00;76818.31;4971615;28;19948;-69
2023/05/06 05:27:06;;;;;;;;;;;;;;;-142.75;100.00;76798.66;4989741;28;19933;-70
2023/05/06 05:29:31;;;;;;;;;;;;;;;-142.75;100.00;76794.69;5004611;28;19914;-69
2023/05/06 05:31:56;;;;;;;;;;;;;;;-142.75;100.00;76777.00;4989370;28;19913;-69
2023/05/06 05:34:21;;;;;;;;;;;;;;;-142.75;100.00;76767.16;4989291;28;19918;-69
2023/05/06 05:36:47;;;;;;;;;;;;;;;-142.75;100.00;76767.16;4982637;28;20383;-70
2023/05/06 05:39:12;;;;;;;;;;;;;;;-142.75;100.00;76763.22;4989348;28;20216;-69
2023/05/06 05:41:37;;;;;;;;;;;;;;;-142.75;100.00;76759.28;4989389;28;19913;-70
2023/05/06 05:44:02;;;;;;;;;;;;;;;-142.75;100.00;76765.19;4989188;28;19926;-70
2023/05/06 05:46:28;;;;;;;;;;;;;;;-142.75;100.00;76751.41;4989387;28;19914;-69
2023/05/06 05:48:53;;;;;;;;;;;;;;;-142.75;100.00;76769.13;4994723;28;19927;-70
2023/05/06 05:51:18;;;;;;;;;;;;;;;-142.75;100.00;76757.31;4989439;28;20454;-70
2023/05/06 05:53:43;;;;;;;;;;;;;;;-142.75;100.00;76747.47;4989021;28;20640;-69
2023/05/06 05:56:08;;;;;;;;;;;;;;;-142.75;100.00;76743.53;4988916;28;19919;-69
2023/05/06 05:58:34;;;;;;;;;;;;;;;-142.75;100.00;76725.81;4997295;28;19917;-70
2023/05/06 06:01:00;;;;;;;;;;;;;;;-142.75;100.00;76702.19;4988926;28;20077;-68
2023/05/06 06:03:25;;;;;;;;;;;;;;;-142.75;100.00;76725.81;4988747;28;19924;-70
2023/05/06 06:05:53;;;;;;;;;;;;;;;-142.75;100.00;76710.06;4988965;28;19913;-69
2023/05/06 06:08:19;;;;;;;;;;;;;;;-142.75;100.00;76719.91;4989058;28;19917;-70
2023/05/06 06:10:45;;;;;;;;;;;;;;;-142.75;100.00;76714.00;4996356;28;20456;-70
2023/05/06 06:13:10;;;;;;;;;;;;;;;-142.75;100.00;76727.78;5000638;28;20382;-70
2023/05/06 06:15:35;;;;;;;;;;;;;;;-142.75;100.00;76723.84;4987203;28;20397;-70
2023/05/06 06:18:00;;;;;;;;;;;;;;;-142.75;100.00;76719.91;4988556;28;19914;-70
2023/05/06 06:20:26;;;;;;;;;;;;;;;-142.75;100.00;76723.84;4988699;28;19920;-70
2023/05/06 06:22:51;;;;;;;;;;;;;;;-142.75;100.00;76735.66;4988889;28;20072;-70
2023/05/06 06:25:16;;;;;;;;;;;;;;;-142.75;100.00;76731.72;4989071;28;20390;-69
2023/05/06 06:27:41;;;;;;;;;;;;;;;-142.75;100.00;76743.53;4988608;28;19933;-70
2023/05/06 06:30:07;;;;;;;;;;;;;;;-142.75;100.00;76735.66;4989017;28;19920;-69
2023/05/06 06:32:32;;;;;;;;;;;;;;;-142.75;100.00;76731.72;4987854;28;19953;-69
2023/05/06 06:34:57;;;;;;;;;;;;;;;-142.75;100.00;76753.38;4987373;28;19937;-68
2023/05/06 06:37:23;;;;;;;;;;;;;;;-142.75;100.00;76737.63;4988490;28;19913;-70
2023/05/06 06:39:48;;;;;;;;;;;;;;;-142.75;100.00;76717.94;4987023;28;19929;-68
2023/05/06 06:42:13;;;;;;;;;;;;;;;-142.75;100.00;76719.91;4988055;28;19914;-70
2023/05/06 06:44:38;;;;;;;;;;;;;;;-142.75;100.00;76704.16;4987864;28;20306;-71
2023/05/06 06:47:04;;;;;;;;;;;;;;;-142.75;100.00;76688.41;4975776;28;19932;-71
2023/05/06 06:49:30;;;;;;;;;;;;;;;-142.75;100.00;76684.47;4980034;28;19913;-70
2023/05/06 06:51:56;;;;;;;;;;;;;;;-142.75;100.00;76674.63;4987443;28;20020;-71
2023/05/06 06:54:21;;;;;;;;;;;;;;;-142.75;100.00;76660.84;4989267;28;19992;-70
2023/05/06 06:56:47;;;;;;;;;;;;;;;-142.75;100.00;76676.59;4990532;28;20383;-71
2023/05/06 06:59:12;;;;;;;;;;;;;;;-142.75;100.00;76668.72;4989814;28;19964;-71
2023/05/06 07:01:37;;;;;;;;;;;;;;;-142.75;100.00;76664.78;4990177;28;19959;-70
2023/05/06 07:04:03;;;;;;;;;;;;;;;-142.75;100.00;76668.72;4988741;28;20384;-71
2023/05/06 07:06:28;;;;;;;;;;;;;;;-142.75;100.00;76649.03;4985189;28;19922;-70
2023/05/06 07:08:53;;;;;;;;;;;;;;;-142.75;100.00;76645.09;4987189;28;19971;-70
2023/05/06 07:11:18;;;;;;;;;;;;;;;-142.75;100.00;76664.78;4973982;28;19913;-69
2023/05/06 07:13:43;;;;;;;;;;;;;;;-142.75;100.00;76704.16;4987486;28;19913;-71
2023/05/06 07:16:09;;;;;;;;;;;;;;;-142.75;100.00;76684.47;4987256;28;19913;-70
2023/05/06 07:18:34;;;;;;;;;;;;;;;-142.75;100.00;76678.56;4987101;28;19928;-72
2023/05/06 07:20:59;;;;;;;;;;;;;;;-142.75;100.00;76684.47;4972921;28;19924;-71
2023/05/06 07:23:24;;;;;;;;;;;;;;;-142.75;100.00;76676.59;4971236;28;19918;-69
2023/05/06 07:25:49;;;;;;;;;;;;;;;-142.75;100.00;76668.72;4987382;28;19913;-71
2023/05/06 07:28:15;;;;;;;;;;;;;;;-142.75;100.00;76680.53;4986996;28;19924;-70
2023/05/06 07:30:40;;;;;;;;;;;;;;;-142.75;100.00;76656.91;4987338;28;20306;-71
2023/05/06 07:33:06;;;;;;;;;;;;;;;-142.75;100.00;76647.06;4979868;28;19925;-71
2023/05/06 07:35:31;;;;;;;;;;;;;;;-142.75;100.00;76643.13;4986942;28;19914;-69
2023/05/06 07:37:56;;;;;;;;;;;;;;;-142.75;100.00;76676.59;4986799;28;19952;-69
2023/05/06 07:40:22;;;;;;;;;;;;;;;-142.75;100.00;76652.97;4987120;28;19913;-71
2023/05/06 07:42:47;;;;;;;;;;;;;;;-142.75;100.00;76645.09;4986779;28;19918;-71
2023/05/06 07:45:14;;;;;;;;;;;;;;;-142.75;100.00;76660.84;4987329;28;19989;-72
2023/05/06 07:47:39;;;;;;;;;;;;;;;-142.75;100.00;76680.53;4990166;28;19931;-72
2023/05/06 07:50:05;;;;;;;;;;;;;;;-142.75;100.00;76670.69;4990734;28;19917;-71
2023/05/06 07:52:31;;;;;;;;;;;;;;;-142.75;100.00;76688.41;4990926;28;20375;-72
2023/05/06 07:54:56;;;;;;;;;;;;;;;-142.75;100.00;76664.78;4990353;28;19920;-72
2023/05/06 07:57:21;;;;;;;;;;;;;;;-142.75;100.00;76647.06;4990820;28;19913;-72
2023/05/06 07:59:47;;;;;;;;;;;;;;;-142.75;100.00;76641.16;4989589;28;19975;-71
2023/05/06 08:02:12;;;;;;;;;;;;;;;-142.75;100.00;76637.22;4990355;28;19964;-72
2023/05/06 08:04:38;;;;;;;;;;;;;;;-142.75;100.00;76633.28;4990641;28;20341;-69
2023/05/06 08:07:03;;;;;;;;;;;;;;;-142.75;100.00;76613.59;4990859;28;20426;-72
2023/05/06 08:09:28;;;;;;;;;;;;;;;-142.75;100.00;76597.84;4990529;28;19975;-72
2023/05/06 08:11:54;;;;;;;;;;;;;;;-142.75;100.00;76570.28;4990237;28;19914;-70
2023/05/06 08:14:19;;;;;;;;;;;;;;;-142.75;100.00;76556.50;4986906;28;20020;-72
2023/05/06 08:16:44;;;;;;;;;;;;;;;-142.75;100.00;76538.78;4982385;28;19918;-72
2023/05/06 08:19:09;;;;;;;;;;;;;;;-142.75;100.00;76546.66;4990402;28;19997;-72
2023/05/06 08:21:34;;;;;;;;;;;;;;;-142.75;100.00;76515.19;4990566;28;20413;-71
2023/05/06 08:24:00;;;;;;;;;;;;;;;-142.75;100.00;76503.38;4989948;28;19917;-72
2023/05/06 08:26:25;;;;;;;;;;;;;;;-142.75;100.00;76460.06;4989950;28;19961;-72
2023/05/06 08:28:50;;;;;;;;;;;;;;;-142.75;100.00;76424.63;4989045;28;19918;-71
2023/05/06 08:31:15;;;;;;;;;;;;;;;-142.75;100.00;76406.91;4989080;28;19976;-71
2023/05/06 08:33:40;;;;;;;;;;;;;;;-142.75;100.00;76377.38;4989347;28;19914;-71
2023/05/06 08:36:06;;;;;;;;;;;;;;;-142.75;100.00;76347.84;4989689;28;19913;-71
2023/05/06 08:38:31;;;;;;;;;;;;;;;-142.75;100.00;76310.47;4990092;28;19913;-72
2023/05/06 08:40:59;;;;;;;;;;;;;;;-142.75;100.00;76277.00;4990726;28;19914;-72
2023/05/06 08:43:25;;;;;;;;;;;;;;;-142.75;100.00;76261.25;4990425;28;19914;-70
2023/05/06 08:45:50;;;;;;;;;;;;;;;-142.75;100.00;76255.34;4975276;28;19914;-72
2023/05/06 08:48:15;;;;;;;;;;;;;;;-142.75;100.00;76271.09;4989655;28;19925;-72
2023/05/06 08:50:42;;;;;;;;;;;;;;;-142.75;100.00;76263.22;4971522;28;20341;-71
2023/05/06 08:53:16;;;;;;;;;;;;;;;-142.75;100.00;76267.16;4989505;28;19944;-71
2023/05/06 08:55:41;;;;;;;;;;;;;;;-142.75;100.00;76249.44;4989052;28;19972;-72
2023/05/06 08:58:07;;;;;;;;;;;;;;;-142.75;100.00;76237.63;4979251;28;19945;-71
2023/05/06 09:00:32;;;;;;;;;;;;;;;-142.75;100.00;76198.28;4989522;28;20410;-69
2023/05/06 09:02:57;;;;;;;;;;;;;;;-142.75;100.00;76178.59;4988628;28;19914;-71
2023/05/06 09:05:23;;;;;;;;;;;;;;;-142.75;100.00;76180.56;4972199;28;19976;-70
2023/05/06 09:07:48;;;;;;;;;;;;;;;-142.75;100.00;76151.03;4972363;28;19917;-70
2023/05/06 09:10:14;;;;;;;;;;;;;;;-142.75;100.00;76119.53;4988208;28;19914;-70
2023/05/06 09:12:39;;;;;;;;;;;;;;;-142.75;100.00;76111.66;4982124;28;19920;-71
2023/05/06 09:15:04;;;;;;;;;;;;;;;-142.75;100.00;76113.63;4989464;28;20611;-71
2023/05/06 09:17:31;;;;;;;;;;;;;;;-142.75;100.00;76109.69;4990142;28;19916;-71
2023/05/06 09:19:57;;;;;;;;;;;;;;;-142.75;100.00;76101.81;4989877;28;19921;-70
2023/05/06 09:22:23;;;;;;;;;;;;;;;-142.75;100.00;76121.50;4990113;28;19918;-71
2023/05/06 09:24:55;;;;;;;;;;;;;;;-142.75;100.00;76050.66;4989694;28;19984;-71
2023/05/06 09:27:28;;;;;;;;;;;;;;;-142.75;100.00;76032.94;4989452;28;19918;-71
2023/05/06 09:30:04;;;;;;;;;;;;;;;-142.75;100.00;76074.25;4989540;28;19913;-69
2023/05/06 09:32:29;;;;;;;;;;;;;;;-142.75;99.48;76040.81;4988674;28;20338;-69
2023/05/06 09:34:55;;;;;;;;;;;;;;;-142.75;100.00;76038.84;4988509;28;19917;-65
2023/05/06 09:37:20;;;;;;;;;;;;;;;-142.75;100.00;76062.47;4988996;28;19914;-67
2023/05/06 09:39:46;;;;;;;;;;;;;;;-142.75;100.00;76066.41;4989095;28;20008;-70
2023/05/06 09:42:11;;;;;;;;;;;;;;;-142.75;100.00;76064.44;4987380;28;19927;-69
2023/05/06 09:44:36;;;;;;;;;;;;;;;-142.75;100.00;76078.19;4995200;28;19909;-71
2023/05/06 09:47:02;;;;;;;;;;;;;;;-142.75;100.00;76066.41;4988353;28;19918;-70
2023/05/06 09:49:28;;;;;;;;;;;;;;;-142.75;100.00;76090.00;4979173;28;20342;-69
2023/05/06 09:51:54;;;;;;;;;;;;;;;-142.75;100.00;76133.31;4986366;28;19936;-68
2023/05/06 09:54:19;;;;;;;;;;;;;;;-142.75;100.00;76131.34;4991317;28;19914;-71
2023/05/06 09:56:46;;;;;;;;;;;;;;;-142.75;100.00;76121.50;4989007;28;19921;-68
2023/05/06 09:59:12;;;;;;;;;;;;;;;-142.75;100.00;76123.47;4975501;28;19918;-71
2023/05/06 10:01:38;;;;;;;;;;;;;;;-142.75;100.00;76091.97;4988340;28;20020;-70
2023/05/06 10:04:06;;;;;;;;;;;;;;;-142.75;100.00;76105.75;4988853;28;20003;-71
2023/05/06 10:06:34;;;;;;;;;;;;;;;-142.75;100.00;76133.31;4988813;28;20287;-72
2023/05/06 10:09:00;;;;;;;;;;;;;;;-142.75;100.00;76117.56;4976715;28;19925;-74
2023/05/06 10:11:25;;;;;;;;;;;;;;;-142.75;100.00;76117.56;4988125;28;20618;-72
2023/05/06 10:13:51;;;;;;;;;;;;;;;-142.75;100.00;76135.28;4999218;28;19920;-73
2023/05/06 10:16:17;;;;;;;;;;;;;;;-142.75;100.00;76129.38;4988824;28;20133;-71
2023/05/06 10:18:44;;;;;;;;;;;;;;;-142.75;100.00;76107.72;4988459;28;19960;-72
2023/05/06 10:21:14;;;;;;;;;;;;;;;-142.75;100.00;76088.03;4988632;28;20469;-71
2023/05/06 10:23:43;;;;;;;;;;;;;;;-142.75;100.00;76060.50;4988467;28;19913;-71
2023/05/06 10:26:12;;;;;;;;;;;;;;;-142.75;99.75;76129.38;4988553;28;19945;-71
2023/05/06 10:28:41;;;;;;;;;;;;;;;-142.75;100.00;76074.25;4988985;28;19925;-71
2023/05/06 10:31:10;;;;;;;;;;;;;;;-142.75;100.00;76054.59;4988682;28;19914;-72
2023/05/06 10:33:35;;;;;;;;;;;;;;;-142.75;96.06;76080.16;4988376;28;19917;-72
2023/05/06 10:36:10;;;;;;;;;;;;;;;-142.75;95.16;76066.41;4988372;28;19913;-73
2023/05/06 10:38:39;;;;;;;;;;;;;;;-142.75;96.57;76082.13;4988179;28;19961;-73
2023/05/06 10:41:05;;;;;;;;;;;;;;;-142.75;95.40;76072.31;4988322;28;19914;-72
2023/05/06 10:43:32;;;;;;;;;;;;;;;-142.75;98.58;76103.78;4986813;28;19928;-72
2023/05/06 10:46:05;;;;;;;;;;;;;;;-142.75;97.51;76097.88;4976784;28;19948;-72
2023/05/06 10:48:30;;;;;;;;;;;;;;;-142.75;99.71;76117.56;4988262;28;20298;-71
2023/05/06 10:51:16;;;;;;;;;;;;;;;-142.75;98.80;76086.06;4988042;28;19921;-72
2023/05/06 10:54:03;;;;;;;;;;;;;;;-142.75;97.67;76082.13;4987794;28;19922;-72
2023/05/06 10:56:35;;;;;;;;;;;;;;;-142.75;96.70;76101.81;4986881;28;19917;-69
2023/05/06 10:59:03;;;;;;;;;;;;;;;-142.75;100.00;76056.56;4970594;28;19921;-70
2023/05/06 11:01:28;;;;;;;;;;;;;;;-142.75;97.18;76046.72;4988144;28;19997;-72
2023/05/06 11:03:53;;;;;;;;;;;;;;;-142.75;90.64;76097.88;4987750;28;20041;-70
2023/05/06 11:06:35;;;;;;;;;;;;;;;-142.75;92.74;76123.47;4997800;28;19980;-72
2023/05/06 11:09:00;;;;;;;;;;;;;;;-142.75;94.04;76076.22;4970230;28;19921;-71
2023/05/06 11:11:45;;;;;;;;;;;;;;;-142.75;90.71;76070.34;4988002;28;19968;-71
2023/05/06 11:14:11;;;;;;;;;;;;;;;-142.75;90.23;76032.94;4987854;28;20644;-72
2023/05/06 11:16:49;;;;;;;;;;;;;;;-142.75;89.69;76003.41;4987809;28;19968;-71
2023/05/06 11:19:22;;;;;;;;;;;;;;;-142.75;89.21;75999.47;4987856;28;19914;-72
2023/05/06 11:21:47;;;;;;;;;;;;;;;-142.75;90.61;76076.22;4980868;28;19917;-71
2023/05/06 11:24:13;;;;;;;;;;;;;;;-142.75;93.83;76058.53;4987386;28;19924;-72
2023/05/06 11:26:38;;;;;;;;;;;;;;;-142.75;95.63;76125.44;4987653;28;19920;-72
2023/05/06 11:29:04;;;;;;;;;;;;;;;-142.75;100.00;76097.88;5002697;28;19940;-71
2023/05/06 11:31:36;;;;;;;;;;;;;;;-142.75;100.00;76105.75;4987677;28;19920;-71
2023/05/06 11:34:05;;;;;;;;;;;;;;;-142.75;99.98;76101.81;4987309;28;19945;-71
2023/05/06 11:36:31;;;;;;;;;;;;;;;-142.75;98.45;76097.88;4987705;28;20391;-71
2023/05/06 11:38:57;;;;;;;;;;;;;;;-142.75;97.10;76115.59;4987578;28;19964;-70
2023/05/06 11:41:23;;;;;;;;;;;;;;;-142.75;99.21;76123.47;4987665;28;19921;-69
2023/05/06 11:43:49;;;;;;;;;;;;;;;-142.75;100.00;76143.16;4986093;28;20028;-73
2023/05/06 11:46:14;;;;;;;;;;;;;;;-142.75;99.59;76117.56;4987344;28;20551;-71
2023/05/06 11:48:39;;;;;;;;;;;;;;;-142.75;98.96;76125.44;4987361;28;19933;-72
2023/05/06 11:51:05;;;;;;;;;;;;;;;-142.75;97.82;76117.56;4987251;28;19917;-70
2023/05/06 11:53:30;;;;;;;;;;;;;;;-142.75;97.27;76119.53;4987009;28;20299;-68
2023/05/06 11:55:55;;;;;;;;;;;;;;;-142.75;100.00;76137.25;4987114;28;20299;-70
2023/05/06 11:58:25;;;;;;;;;;;;;;;-142.75;100.00;76135.28;4986036;28;19921;-71
2023/05/06 12:01:00;;;;;;;;;;;;;;;-142.75;100.00;76139.22;5002682;28;19917;-69
2023/05/06 12:03:26;;;;;;;;;;;;;;;-142.75;100.00;76143.16;4987154;28;20345;-70
2023/05/06 12:05:51;;;;;;;;;;;;;;;-142.75;100.00;76174.66;4969529;28;19914;-69
2023/05/06 12:08:22;;;;;;;;;;;;;;;-142.75;100.00;76164.81;4987405;28;19972;-70
2023/05/06 12:10:48;;;;;;;;;;;;;;;-142.75;100.00;76127.41;4987725;28;19920;-70
2023/05/06 12:13:14;;;;;;;;;;;;;;;-142.75;100.00;76080.16;4987134;28;19914;-72